Time;durP1;ratioP1;P1;durP2;ratioP2;P2;SDS_P1;SDS_P2;PMS_P1;PMS_P2;Temp;Humidity;BMP_temperature;BMP_pressure;BME280_temperature;BME280_humidity;BME280_pressure;Samples;Min_cycle;Max_cycle;Signal;HPM_P1;HPM_P2
2023/04/22 03:00:32;;;;;;;19.67;18.47;;;10.40;99.90;;;;;;5910506;23;20236;-72
2023/04/22 03:02:57;;;;;;;16.80;15.30;;;10.40;99.90;;;;;;4973445;28;20533;-73
2023/04/22 03:05:23;;;;;;;15.07;13.93;;;10.50;99.90;;;;;;4971916;28;20180;-73
2023/04/22 03:07:49;;;;;;;17.27;15.93;;;10.50;99.90;;;;;;4970134;28;20177;-72
2023/04/22 03:10:15;;;;;;;17.70;16.50;;;10.40;99.90;;;;;;4972008;28;20213;-73
2023/04/22 03:12:40;;;;;;;14.70;13.47;;;10.40;99.90;;;;;;4971136;28;20185;-73
2023/04/22 03:15:07;;;;;;;14.87;13.83;;;10.30;99.90;;;;;;4965658;28;20226;-73
2023/04/22 03:17:33;;;;;;;16.40;15.20;;;10.30;99.90;;;;;;4952336;28;20224;-72
2023/04/22 03:19:59;;;;;;;23.40;21.80;;;10.30;99.90;;;;;;4952973;28;20709;-72
2023/04/22 03:25:00;;;;;;;26.67;25.10;;;10.20;99.90;;;;;;5241557;23;20699;-73
2023/04/22 03:27:26;;;;;;;27.97;25.97;;;10.10;99.90;;;;;;4989916;28;20190;-73
2023/04/22 03:29:52;;;;;;;19.17;17.67;;;10.10;99.90;;;;;;4994029;28;20242;-73
2023/04/22 03:32:17;;;;;;;16.50;15.20;;;10.20;99.90;;;;;;4993958;28;20287;-73
2023/04/22 03:34:43;;;;;;;15.37;14.40;;;10.10;99.90;;;;;;4994439;28;20184;-73
2023/04/22 03:37:09;;;;;;;13.73;12.43;;;10.10;99.90;;;;;;4974314;28;20180;-73
2023/04/22 03:39:35;;;;;;;13.17;11.77;;;10.10;99.90;;;;;;4974546;28;20235;-73
2023/04/22 03:42:01;;;;;;;13.07;12.17;;;10.00;99.90;;;;;;4975603;28;20240;-74
2023/04/22 03:44:26;;;;;;;13.87;12.87;;;10.10;99.90;;;;;;5471505;23;20330;-73
2023/04/22 03:46:52;;;;;;;15.43;14.17;;;10.00;99.90;;;;;;4993689;28;20821;-73
2023/04/22 03:49:18;;;;;;;11.97;10.83;;;10.00;99.90;;;;;;4994516;28;20216;-73
2023/04/22 03:51:44;;;;;;;11.60;10.70;;;10.00;99.90;;;;;;4993751;28;20232;-73
2023/04/22 03:54:09;;;;;;;24.57;23.07;;;10.00;99.90;;;;;;4994796;28;20176;-73
2023/04/22 03:56:35;;;;;;;23.97;22.47;;;9.90;99.90;;;;;;4993324;28;20187;-73
2023/04/22 03:59:01;;;;;;;16.63;15.43;;;9.80;99.90;;;;;;5012749;23;20224;-73
2023/04/22 04:01:27;;;;;;;14.13;13.03;;;9.80;99.90;;;;;;4975822;28;20641;-73
2023/04/22 04:03:52;;;;;;;15.00;13.90;;;9.80;99.90;;;;;;4973691;28;20185;-73
2023/04/22 04:06:18;;;;;;;15.60;14.47;;;9.70;99.90;;;;;;4983734;28;20176;-73
2023/04/22 04:08:45;;;;;;;18.17;16.67;;;9.70;99.90;;;;;;4975781;28;20185;-73
2023/04/22 04:11:10;;;;;;;25.67;24.07;;;9.70;99.90;;;;;;4975065;28;20285;-73
2023/04/22 04:13:36;;;;;;;29.87;28.03;;;9.60;99.90;;;;;;4974239;28;20192;-73
2023/04/22 04:16:02;;;;;;;31.07;28.93;;;9.60;99.90;;;;;;4974654;28;20174;-73
2023/04/22 04:18:28;;;;;;;28.30;26.60;;;9.60;99.90;;;;;;4973707;28;20704;-73
2023/04/22 04:20:55;;;;;;;30.23;28.23;;;9.60;99.90;;;;;;4973745;28;20200;-72
2023/04/22 04:23:21;;;;;;;25.93;24.33;;;9.50;99.90;;;;;;4973990;28;20181;-73
2023/04/22 04:25:46;;;;;;;25.70;23.90;;;9.50;99.90;;;;;;4971058;28;20186;-73
2023/04/22 04:28:13;;;;;;;30.53;28.63;;;9.50;99.90;;;;;;4955640;28;20177;-70
2023/04/22 04:30:40;;;;;;;31.43;29.43;;;9.50;99.90;;;;;;4958279;29;20247;-71
2023/04/22 04:33:06;;;;;;;22.93;21.43;;;9.40;99.90;;;;;;4971234;28;20181;-71
2023/04/22 04:35:38;;;;;;;22.97;21.50;;;9.30;99.90;;;;;;4966438;28;20244;-70
2023/04/22 04:38:05;;;;;;;28.07;26.33;;;9.30;99.90;;;;;;4954985;28;20209;-71
2023/04/22 04:40:31;;;;;;;23.53;21.97;;;9.30;99.90;;;;;;4967420;28;20196;-70
2023/04/22 04:42:57;;;;;;;17.90;16.50;;;9.30;99.90;;;;;;4974680;28;20259;-70
2023/04/22 04:45:24;;;;;;;21.77;20.17;;;9.30;99.90;;;;;;4974217;28;20185;-69
2023/04/22 04:47:51;;;;;;;23.30;21.70;;;9.30;99.90;;;;;;4974099;28;20235;-69
2023/04/22 04:50:19;;;;;;;25.97;24.07;;;9.30;99.90;;;;;;4973145;28;20609;-69
2023/04/22 04:52:48;;;;;;;23.70;21.87;;;9.30;99.90;;;;;;4978073;28;20322;-69
2023/04/22 04:55:14;;;;;;;16.80;15.60;;;9.30;99.90;;;;;;4993367;28;20212;-69
2023/04/22 04:57:40;;;;;;;14.87;13.83;;;9.40;99.90;;;;;;4972737;28;20184;-69
2023/04/22 05:00:07;;;;;;;14.50;13.13;;;9.40;99.90;;;;;;4974058;28;20221;-69
2023/04/22 05:02:32;;;;;;;12.40;11.23;;;9.40;99.90;;;;;;4973917;28;20185;-69
2023/04/22 05:04:58;;;;;;;13.53;12.20;;;9.50;99.90;;;;;;4973036;28;20192;-70
2023/04/22 05:07:24;;;;;;;28.33;26.43;;;9.60;99.90;;;;;;4972043;28;20185;-70
2023/04/22 05:09:50;;;;;;;36.53;34.23;;;9.60;99.90;;;;;;4972613;28;20221;-70
2023/04/22 05:12:16;;;;;;;37.47;35.17;;;9.50;99.90;;;;;;4973981;28;20185;-69
2023/04/22 05:14:41;;;;;;;38.27;35.67;;;9.50;99.90;;;;;;4972537;28;20173;-69
2023/04/22 05:17:07;;;;;;;21.83;20.33;;;9.50;99.90;;;;;;4959180;28;20186;-69
2023/04/22 05:19:33;;;;;;;29.03;27.10;;;9.50;99.90;;;;;;4954234;28;20678;-70
2023/04/22 05:21:59;;;;;;;32.97;30.53;;;9.60;99.90;;;;;;4954101;29;20554;-70
2023/04/22 05:24:24;;;;;;;32.50;30.07;;;9.60;99.90;;;;;;4954412;28;20197;-70
2023/04/22 05:26:50;;;;;;;33.63;31.50;;;9.70;99.90;;;;;;4964831;28;20661;-70
2023/04/22 05:29:16;;;;;;;31.23;29.13;;;9.70;99.90;;;;;;4977872;28;20246;-70
2023/04/22 05:31:42;;;;;;;17.67;16.43;;;9.80;99.90;;;;;;4993214;28;20220;-70
2023/04/22 05:34:08;;;;;;;14.90;13.80;;;9.80;99.90;;;;;;4992606;28;20176;-70
2023/04/22 05:36:34;;;;;;;14.37;13.37;;;9.90;99.90;;;;;;4983153;28;20191;-70
2023/04/22 05:38:59;;;;;;;33.97;32.10;;;10.00;99.90;;;;;;4973282;28;20209;-69
2023/04/22 05:41:25;;;;;;;37.30;34.93;;;10.10;99.90;;;;;;4972212;28;20733;-69
2023/04/22 05:43:51;;;;;;;36.43;34.20;;;10.10;99.90;;;;;;4973832;28;20220;-69
2023/04/22 05:46:17;;;;;;;34.00;32.03;;;10.10;99.90;;;;;;4967291;28;20178;-69
2023/04/22 05:48:44;;;;;;;29.73;27.90;;;10.10;99.90;;;;;;4951481;28;20182;-69
2023/04/22 05:51:10;;;;;;;21.73;20.27;;;10.20;99.90;;;;;;4953776;29;20224;-69
2023/04/22 05:53:35;;;;;;;21.67;20.23;;;10.20;99.90;;;;;;4954055;28;20178;-69
2023/04/22 05:56:01;;;;;;;17.57;16.37;;;10.40;99.90;;;;;;4957136;28;20214;-70
2023/04/22 05:58:27;;;;;;;12.77;11.67;;;10.50;99.90;;;;;;4973075;28;20539;-69
2023/04/22 06:00:52;;;;;;;12.93;11.73;;;10.60;99.90;;;;;;4973155;28;20224;-69
2023/04/22 06:03:18;;;;;;;11.37;9.93;;;10.70;99.90;;;;;;4973138;28;20181;-70
2023/04/22 06:05:44;;;;;;;9.47;8.40;;;10.90;99.90;;;;;;4970850;28;20275;-71
2023/04/22 06:08:10;;;;;;;9.27;8.60;;;10.90;99.90;;;;;;4953062;29;20252;-70
2023/04/22 06:10:36;;;;;;;15.83;14.67;;;11.10;99.90;;;;;;4952878;28;20221;-70
2023/04/22 06:13:01;;;;;;;16.47;15.27;;;11.10;99.90;;;;;;4953727;29;20713;-70
2023/04/22 06:15:27;;;;;;;20.90;19.40;;;11.20;99.90;;;;;;4953480;29;20182;-70
2023/04/22 06:17:53;;;;;;;17.77;16.57;;;11.40;99.90;;;;;;4971243;28;20681;-70
2023/04/22 06:20:19;;;;;;;25.50;23.97;;;11.60;99.90;;;;;;4972699;28;20201;-70
2023/04/22 06:22:45;;;;;;;36.27;33.97;;;11.70;99.90;;;;;;5464891;23;20224;-71
2023/04/22 06:25:11;;;;;;;32.27;30.43;;;11.90;99.90;;;;;;4990976;28;20184;-71
2023/04/22 06:27:36;;;;;;;13.27;12.10;;;12.20;99.90;;;;;;4977221;28;20799;-72
2023/04/22 06:30:04;;;;;;;13.23;12.17;;;12.40;99.90;;;;;;4975905;28;20224;-70
2023/04/22 06:32:29;;;;;;;18.53;17.17;;;12.60;99.90;;;;;;4972729;28;20665;-70
2023/04/22 06:34:55;;;;;;;17.67;16.50;;;12.90;99.90;;;;;;5002661;23;20235;-69
2023/04/22 06:37:21;;;;;;;14.47;13.40;;;13.40;99.90;;;;;;4992318;28;20180;-70
2023/04/22 06:39:47;;;;;;;13.43;12.43;;;13.60;99.90;;;;;;4992434;28;20180;-69
2023/04/22 06:42:12;;;;;;;10.60;9.80;;;13.80;99.90;;;;;;4992550;28;20216;-70
2023/04/22 06:44:38;;;;;;;9.47;8.77;;;14.00;99.90;;;;;;4985533;28;20208;-69
2023/04/22 06:47:04;;;;;;;10.77;10.07;;;14.30;99.90;;;;;;4972488;28;20217;-70
2023/04/22 06:49:30;;;;;;;13.13;12.33;;;14.60;99.90;;;;;;4973013;28;20236;-68
2023/04/22 06:51:56;;;;;;;11.33;10.63;;;14.80;99.90;;;;;;4972504;28;20629;-69
2023/04/22 06:54:22;;;;;;;14.53;13.63;;;15.20;99.90;;;;;;4971126;28;20204;-68
2023/04/22 06:56:47;;;;;;;11.67;10.87;;;15.40;99.90;;;;;;4972541;28;20181;-70
2023/04/22 06:59:13;;;;;;;15.07;14.07;;;15.40;99.90;;;;;;4972168;28;20684;-69
2023/04/22 07:01:39;;;;;;;16.60;15.63;;;15.70;99.90;;;;;;4970580;28;20268;-70
2023/04/22 07:04:05;;;;;;;36.43;34.43;;;16.00;99.90;;;;;;4989698;28;20176;-71
2023/04/22 07:06:31;;;;;;;45.10;42.73;;;16.20;99.90;;;;;;4991442;28;20559;-71
2023/04/22 07:08:57;;;;;;;40.37;38.20;;;16.50;99.90;;;;;;4990281;28;20267;-70
2023/04/22 07:11:23;;;;;;;42.20;39.90;;;16.60;99.90;;;;;;4980934;28;20315;-69
2023/04/22 07:13:49;;;;;;;38.90;36.87;;;16.30;99.90;;;;;;4972463;28;20185;-69
2023/04/22 07:16:15;;;;;;;49.00;46.50;;;15.90;99.90;;;;;;4972006;28;20173;-68
2023/04/22 07:18:40;;;;;;;60.47;57.37;;;15.70;99.90;;;;;;4962415;28;20234;-68
2023/04/22 07:21:06;;;;;;;56.43;53.27;;;15.70;99.90;;;;;;4960126;28;20192;-69
2023/04/22 07:23:32;;;;;;;60.13;56.93;;;15.50;99.90;;;;;;4970486;28;20192;-69
2023/04/22 07:25:58;;;;;;;55.27;52.13;;;15.50;99.90;;;;;;4971336;28;20211;-70
2023/04/22 07:28:23;;;;;;;60.40;57.20;;;15.50;99.90;;;;;;4971070;28;20185;-71
2023/04/22 07:30:49;;;;;;;56.17;52.60;;;15.70;99.90;;;;;;4971053;28;20249;-69
2023/04/22 07:33:15;;;;;;;38.03;35.93;;;15.90;99.90;;;;;;4972939;28;20184;-71
2023/04/22 07:35:41;;;;;;;33.23;31.13;;;16.20;99.90;;;;;;4971400;28;20220;-70
2023/04/22 07:38:07;;;;;;;8.50;7.97;;;16.70;99.90;;;;;;4971230;28;20211;-69
2023/04/22 07:40:33;;;;;;;6.90;6.50;;;17.30;99.90;;;;;;4971009;28;20181;-69
2023/04/22 07:42:58;;;;;;;7.07;6.37;;;17.70;99.90;;;;;;4972461;28;20192;-69
2023/04/22 07:45:24;;;;;;;6.53;6.13;;;18.10;99.90;;;;;;4972033;28;20227;-70
2023/04/22 07:47:50;;;;;;;7.27;6.77;;;18.40;99.90;;;;;;4971921;28;20181;-70
2023/04/22 07:50:16;;;;;;;6.67;6.27;;;18.60;99.90;;;;;;4971635;28;20201;-69
2023/04/22 07:52:41;;;;;;;6.13;5.73;;;18.50;99.90;;;;;;4971920;28;20189;-69
2023/04/22 07:55:07;;;;;;;6.60;6.23;;;18.30;99.90;;;;;;4972008;28;20337;-69
2023/04/22 07:57:37;;;;;;;7.43;7.00;;;18.40;99.90;;;;;;4971859;28;20611;-68
2023/04/22 08:00:05;;;;;;;10.07;9.57;;;18.90;99.90;;;;;;4970858;28;20189;-68
2023/04/22 08:02:31;;;;;;;9.07;8.38;;;19.20;99.90;;;;;;4971870;28;20593;-68
2023/04/22 08:04:57;;;;;;;9.53;8.93;;;19.50;99.90;;;;;;4971844;28;20239;-69
2023/04/22 08:07:22;;;;;;;6.82;6.45;;;19.80;99.90;;;;;;4971935;28;20641;-68
2023/04/22 08:09:48;;;;;;;5.65;5.22;;;20.10;99.90;;;;;;4971882;28;20226;-67
2023/04/22 08:12:14;;;;;;;7.25;6.68;;;20.10;99.90;;;;;;4973972;28;20181;-68
2023/04/22 08:14:40;;;;;;;9.85;9.10;;;20.20;99.90;;;;;;4975511;28;20255;-69
2023/04/22 08:17:05;;;;;;;7.28;6.88;;;20.90;99.90;;;;;;4975039;28;20203;-69
2023/04/22 08:19:31;;;;;;;5.25;4.95;;;21.40;99.90;;;;;;4975090;28;20185;-68
2023/04/22 08:21:57;;;;;;;13.27;12.63;;;21.70;99.90;;;;;;4974691;28;20272;-69
2023/04/22 08:24:23;;;;;;;10.73;10.15;;;21.70;98.00;;;;;;4967153;28;20706;-68
2023/04/22 08:26:48;;;;;;;20.55;19.58;;;21.40;98.00;;;;;;4968184;28;20189;-69
2023/04/22 08:29:14;;;;;;;13.77;13.18;;;21.40;97.50;;;;;;4975091;28;20627;-68
2023/04/22 08:31:41;;;;;;;10.13;9.52;;;21.70;97.20;;;;;;4975180;28;20219;-70
2023/04/22 08:34:06;;;;;;;8.23;7.47;;;22.00;96.60;;;;;;4974342;28;20254;-69
2023/04/22 08:36:32;;;;;;;5.28;4.88;;;22.40;96.40;;;;;;4974250;28;20259;-69
2023/04/22 08:38:58;;;;;;;6.22;5.97;;;22.90;93.00;;;;;;4974286;28;20220;-70
2023/04/22 08:41:25;;;;;;;20.15;19.15;;;23.10;92.40;;;;;;4974838;28;20208;-69
2023/04/22 08:43:52;;;;;;;56.95;54.15;;;23.60;91.50;;;;;;4974096;28;20216;-69
2023/04/22 08:46:22;;;;;;;57.95;55.10;;;23.60;90.20;;;;;;4974389;28;20188;-69
2023/04/22 08:48:49;;;;;;;72.30;68.78;;;23.80;90.60;;;;;;4974390;28;20236;-70
2023/04/22 08:51:16;;;;;;;88.40;84.15;;;23.60;86.90;;;;;;4974870;28;20216;-70
2023/04/22 08:53:45;;;;;;;112.13;106.72;;;23.40;90.00;;;;;;4974089;28;20649;-69
2023/04/22 08:56:15;;;;;;;44.50;42.15;;;23.10;90.60;;;;;;4974541;28;20224;-68
2023/04/22 08:58:41;;;;;;;25.08;23.80;;;22.60;92.00;;;;;;4974276;28;20235;-67
2023/04/22 09:01:08;;;;;;;24.35;23.05;;;21.90;92.80;;;;;;4973829;28;20177;-68
2023/04/22 09:03:39;;;;;;;8.82;8.30;;;21.60;92.50;;;;;;4974316;28;20648;-67
2023/04/22 09:06:06;;;;;;;4.22;4.03;;;21.60;93.10;;;;;;4973851;28;20566;-69
2023/04/22 09:08:32;;;;;;;3.90;3.80;;;21.60;93.40;;;;;;4973306;28;20181;-73
2023/04/22 09:10:59;;;;;;;4.30;3.90;;;21.40;93.40;;;;;;4974112;28;20882;-71
2023/04/22 09:13:25;;;;;;;4.45;4.15;;;21.30;93.90;;;;;;4974493;28;20184;-71
2023/04/22 09:15:51;;;;;;;4.50;4.28;;;21.30;94.30;;;;;;4973758;28;20797;-72
2023/04/22 09:18:18;;;;;;;4.47;4.18;;;21.50;93.80;;;;;;4973547;28;20272;-73
2023/04/22 09:20:47;;;;;;;4.72;4.50;;;21.60;93.10;;;;;;4974117;28;20185;-72
2023/04/22 09:23:13;;;;;;;4.03;3.70;;;21.60;93.60;;;;;;4971791;28;20220;-72
2023/04/22 09:25:40;;;;;;;4.50;3.95;;;22.00;92.30;;;;;;4972961;28;20201;-69
2023/04/22 09:28:11;;;;;;;9.85;9.30;;;22.70;92.50;;;;;;4973669;28;20568;-68
2023/04/22 09:30:37;;;;;;;11.90;10.98;;;23.50;90.60;;;;;;4973545;28;20580;-68
2023/04/22 09:33:04;;;;;;;52.78;49.90;;;24.20;91.30;;;;;;4973827;28;20269;-69
2023/04/22 09:35:38;;;;;;;78.63;74.75;;;24.50;89.40;;;;;;4972141;28;20221;-70
2023/04/22 09:38:07;;;;;;;17.73;16.83;;;25.30;87.30;;;;;;4962982;28;20662;-67
2023/04/22 09:40:33;;;;;;;13.90;13.15;;;25.70;78.90;;;;;;4953303;28;20236;-69
2023/04/22 09:43:02;;;;;;;7.53;6.78;;;25.60;79.00;;;;;;4952664;29;20186;-67
2023/04/22 09:45:35;;;;;;;6.70;6.10;;;26.10;76.00;;;;;;4957363;28;20205;-74
2023/04/22 09:48:16;;;;;;;40.30;5.38;;;26.40;74.80;;;;;;4955374;28;20220;-74
2023/04/22 09:50:45;;;;;;;3.63;3.33;;;26.60;72.00;;;;;;4957153;28;20272;-77
2023/04/22 09:53:15;;;;;;;4.97;3.33;;;27.10;72.90;;;;;;4974288;28;20536;-77
2023/04/22 09:55:46;;;;;;;6.07;5.47;;;27.60;69.00;;;;;;4974687;28;20228;-76
2023/04/22 10:00:53;;;;;;;5.45;5.15;;;27.10;65.70;;;;;;5034824;23;20616;-75
2023/04/22 10:03:19;;;;;;;3.22;3.08;;;26.50;65.20;;;;;;4991184;28;20564;-75
2023/04/22 10:05:45;;;;;;;3.83;3.70;;;25.60;68.20;;;;;;4977404;28;20201;-78
2023/04/22 10:08:13;;;;;;;3.58;3.38;;;25.40;71.00;;;;;;4957931;28;20255;-76
2023/04/22 10:10:40;;;;;;;3.28;3.10;;;25.80;71.20;;;;;;4982583;28;20213;-78
2023/04/22 10:13:06;;;;;;;3.40;3.10;;;26.20;68.90;;;;;;5016481;23;20234;-83
2023/04/22 10:15:53;;;;;;;3.50;3.30;;;26.20;69.40;;;;;;5008272;28;20172;-80
2023/04/22 10:18:23;;;;;;;3.50;3.17;;;25.80;69.60;;;;;;4993237;28;20193;-77
2023/04/22 10:20:50;;;;;;;4.03;3.72;;;26.20;70.90;;;;;;4975052;28;20173;-77
2023/04/22 10:23:22;;;;;;;5.47;4.88;;;26.90;67.40;;;;;;4973726;28;20333;-76
2023/04/22 10:25:50;;;;;;;5.38;4.88;;;27.70;64.20;;;;;;4973293;28;20552;-76
2023/04/22 10:28:17;;;;;;;4.93;4.65;;;27.80;64.90;;;;;;4973123;28;20268;-75
2023/04/22 10:30:43;;;;;;;7.10;6.70;;;27.30;65.30;;;;;;4990149;28;20208;-76
2023/04/22 10:33:22;;;;;;;11.07;10.38;;;27.80;63.60;;;;;;4991700;28;20270;-76
2023/04/22 10:36:13;;;;;;;18.55;17.55;;;27.90;62.20;;;;;;4992731;28;20204;-76
2023/04/22 10:38:41;;;;;;;19.73;18.65;;;28.20;58.60;;;;;;4991187;28;20208;-77
2023/04/22 10:41:13;;;;;;;18.17;17.38;;;28.20;59.30;;;;;;4991304;28;20184;-76
2023/04/22 10:43:41;;;;;;;18.38;17.58;;;28.60;59.80;;;;;;4992652;28;20187;-78
2023/04/22 10:46:27;;;;;;;19.33;18.40;;;29.30;58.70;;;;;;4992754;28;20206;-78
2023/04/22 10:48:55;;;;;;;22.17;20.95;;;29.40;57.80;;;;;;4992407;28;20192;-77
2023/04/22 10:51:45;;;;;;;21.95;20.85;;;29.90;56.60;;;;;;4992273;28;20549;-77
2023/04/22 10:54:30;;;;;;;29.42;27.95;;;30.50;54.70;;;;;;4993197;28;20663;-77
2023/04/22 10:57:06;;;;;;;42.92;40.50;;;30.40;53.50;;;;;;4990633;28;20540;-75
2023/04/22 10:59:38;;;;;;;33.08;31.40;;;30.50;53.50;;;;;;4972781;28;20207;-75
2023/04/22 11:02:06;;;;;;;29.70;28.23;;;30.20;54.70;;;;;;4973564;28;20351;-76
2023/04/22 11:04:32;;;;;;;32.85;30.98;;;29.90;57.10;;;;;;4990242;28;20189;-78
2023/04/22 11:07:15;;;;;;;35.35;33.63;;;30.20;55.00;;;;;;4990374;28;20243;-75
2023/04/22 11:09:44;;;;;;;42.65;40.42;;;30.20;55.90;;;;;;4991999;28;20663;-77
2023/04/22 11:12:37;;;;;;;35.53;33.83;;;29.60;55.50;;;;;;4991496;28;20847;-80
2023/04/22 11:15:21;;;;;;;42.47;40.38;;;28.60;55.40;;;;;;4991452;28;20565;-80
2023/04/22 11:17:51;;;;;;;44.63;42.35;;;28.90;56.10;;;;;;4990902;28;20214;-78
2023/04/22 11:20:17;;;;;;;48.58;46.03;;;29.60;55.50;;;;;;4991781;28;20366;-79
2023/04/22 11:22:47;;;;;;;34.92;33.17;;;30.20;53.70;;;;;;4992995;28;20273;-79
2023/04/22 11:25:13;;;;;;;46.50;44.28;;;30.70;52.50;;;;;;4992820;28;20315;-78
2023/04/22 11:27:42;;;;;;;27.85;26.38;;;31.80;48.00;;;;;;4990408;28;20195;-76
2023/04/22 11:30:10;;;;;;;21.77;20.65;;;31.50;47.40;;;;;;4991869;28;20195;-78
2023/04/22 11:32:41;;;;;;;38.55;36.45;;;31.10;46.00;;;;;;4992184;28;20193;-78
2023/04/22 11:35:27;;;;;;;23.45;22.13;;;31.10;49.10;;;;;;4992699;28;20184;-76
2023/04/22 11:37:56;;;;;;;16.90;15.80;;;31.20;48.00;;;;;;4992633;28;20180;-78
2023/04/22 11:40:28;;;;;;;15.93;15.20;;;30.90;46.10;;;;;;4992164;28;20219;-78
2023/04/22 11:42:55;;;;;;;12.70;12.10;;;31.20;44.90;;;;;;4995524;28;20264;-77
2023/04/22 11:48:05;;;;;;;13.18;12.13;;;30.60;45.80;;;;;;5012415;23;20238;-77
2023/04/22 11:50:34;;;;;;;13.52;12.77;;;30.40;45.00;;;;;;4996589;28;20568;-77
2023/04/22 11:53:03;;;;;;;8.85;8.25;;;30.60;44.50;;;;;;4978770;28;20263;-77
2023/04/22 11:55:38;;;;;;;6.72;6.40;;;30.60;41.90;;;;;;4976780;28;20189;-78
2023/04/22 11:58:08;;;;;;;9.57;8.73;;;31.10;41.90;;;;;;4976313;28;20223;-78
2023/04/22 12:00:36;;;;;;;13.48;12.88;;;31.40;44.40;;;;;;5028870;23;20327;-77
2023/04/22 12:03:15;;;;;;;8.82;6.80;;;31.80;44.10;;;;;;5003028;28;20240;-77
2023/04/22 12:05:50;;;;;;;6.85;6.38;;;31.60;42.20;;;;;;5001486;28;20184;-78
2023/04/22 12:08:19;;;;;;;4.13;3.83;;;30.80;43.10;;;;;;5000915;28;20176;-78
2023/04/22 12:10:56;;;;;;;7.75;7.32;;;30.50;40.10;;;;;;4998768;28;20204;-78
2023/04/22 12:13:30;;;;;;;6.60;6.30;;;29.90;41.70;;;;;;4997906;28;20184;-78
2023/04/22 12:15:59;;;;;;;5.82;5.53;;;30.00;41.70;;;;;;4996398;28;20183;-78
2023/04/22 12:18:28;;;;;;;15.23;14.30;;;29.60;41.50;;;;;;4988905;28;20189;-77
2023/04/22 12:21:08;;;;;;;17.25;16.38;;;29.30;44.90;;;;;;4983467;28;20221;-78
2023/04/22 12:23:48;;;;;;;14.75;13.90;;;29.20;44.60;;;;;;4999189;28;20241;-77
2023/04/22 12:26:16;;;;;;;14.77;14.05;;;29.90;44.00;;;;;;4993668;28;20188;-78
2023/04/22 12:28:42;;;;;;;10.50;9.75;;;30.00;44.90;;;;;;5002564;28;20172;-78
2023/04/22 12:31:09;;;;;;;13.95;13.25;;;29.40;44.10;;;;;;5000124;28;20188;-77
2023/04/22 12:33:36;;;;;;;14.68;13.38;;;29.10;42.70;;;;;;4998599;28;20275;-78
2023/04/22 12:36:02;;;;;;;16.00;15.13;;;29.30;44.00;;;;;;4991068;28;20199;-77
2023/04/22 12:38:28;;;;;;;12.93;12.15;;;29.70;43.10;;;;;;4978455;28;20249;-78
2023/04/22 12:40:54;;;;;;;16.10;15.23;;;29.60;42.90;;;;;;4977299;28;20310;-77
2023/04/22 12:43:20;;;;;;;11.20;10.50;;;29.70;43.90;;;;;;4978542;28;20204;-77
2023/04/22 12:45:46;;;;;;;12.40;11.70;;;30.20;42.20;;;;;;4981697;28;20180;-78
2023/04/22 12:48:12;;;;;;;15.55;14.73;;;29.90;42.20;;;;;;4996251;28;20181;-78
2023/04/22 12:50:39;;;;;;;14.20;13.52;;;29.30;43.60;;;;;;4997642;28;20209;-78
2023/04/22 12:53:05;;;;;;;15.88;14.80;;;29.60;44.90;;;;;;4996766;28;20177;-78
2023/04/22 12:55:31;;;;;;;18.05;16.98;;;29.80;44.90;;;;;;4996071;28;20210;-78
2023/04/22 12:57:57;;;;;;;15.40;14.73;;;30.20;45.90;;;;;;4977632;28;20181;-79
2023/04/22 13:00:23;;;;;;;10.75;10.15;;;30.30;46.30;;;;;;4976416;28;20221;-78
2023/04/22 13:02:49;;;;;;;15.75;14.85;;;30.10;43.60;;;;;;4978221;28;20543;-78
2023/04/22 13:05:18;;;;;;;11.23;10.52;;;29.50;45.10;;;;;;4976309;28;20188;-78
2023/04/22 13:07:44;;;;;;;35.53;33.80;;;28.10;46.30;;;;;;4997174;28;20267;-77
2023/04/22 13:10:12;;;;;;;36.42;34.67;;;27.00;48.40;;;;;;4994633;28;20204;-78
2023/04/22 13:12:39;;;;;;;39.08;37.13;;;26.60;49.80;;;;;;4994946;28;20212;-78
2023/04/22 13:15:06;;;;;;;48.83;46.15;;;26.30;48.50;;;;;;4987852;28;20189;-78
2023/04/22 13:17:33;;;;;;;48.85;46.38;;;26.00;49.60;;;;;;4993966;28;20184;-77
2023/04/22 13:19:59;;;;;;;31.42;29.77;;;25.50;51.50;;;;;;4983381;28;20643;-77
2023/04/22 13:22:25;;;;;;;17.85;16.90;;;25.00;53.10;;;;;;4975592;28;20248;-77
2023/04/22 13:24:51;;;;;;;14.13;13.32;;;24.70;53.70;;;;;;4974865;28;20177;-77
2023/04/22 13:27:17;;;;;;;12.20;10.48;;;24.50;54.00;;;;;;4989005;28;20530;-77
2023/04/22 13:29:44;;;;;;;11.23;10.52;;;24.40;55.70;;;;;;4986444;28;20211;-77
2023/04/22 13:32:10;;;;;;;10.65;9.95;;;24.40;54.40;;;;;;4974268;28;20239;-78
2023/04/22 13:34:38;;;;;;;11.15;10.55;;;24.40;55.20;;;;;;4973945;28;20196;-78
2023/04/22 13:37:05;;;;;;;10.48;9.88;;;24.40;54.60;;;;;;4995056;28;20218;-77
2023/04/22 13:39:31;;;;;;;9.93;9.48;;;24.50;53.80;;;;;;5004343;28;20211;-75
2023/04/22 13:41:57;;;;;;;10.82;10.00;;;24.40;54.80;;;;;;4994973;28;20177;-75
2023/04/22 13:44:23;;;;;;;8.02;7.40;;;24.50;54.60;;;;;;4992447;28;20184;-76
2023/04/22 13:46:49;;;;;;;8.77;8.18;;;24.70;55.30;;;;;;4982661;28;20236;-74
2023/04/22 13:49:15;;;;;;;8.63;7.93;;;25.10;55.20;;;;;;4972294;28;20201;-76
2023/04/22 13:51:40;;;;;;;12.50;11.88;;;25.20;56.60;;;;;;4973920;28;20181;-75
2023/04/22 13:54:07;;;;;;;14.02;12.98;;;25.00;52.90;;;;;;4974903;28;20271;-78
2023/04/22 13:56:33;;;;;;;8.40;8.00;;;24.90;52.60;;;;;;4980580;28;20199;-75
2023/04/22 13:58:59;;;;;;;7.32;6.93;;;24.70;55.50;;;;;;4970114;28;20693;-75
2023/04/22 14:01:25;;;;;;;6.35;5.95;;;24.50;56.40;;;;;;4973786;28;20292;-75
2023/04/22 14:03:52;;;;;;;8.50;7.90;;;24.30;56.50;;;;;;4975954;28;20693;-75
2023/04/22 14:06:18;;;;;;;6.75;6.25;;;24.10;56.00;;;;;;4993318;28;20180;-75
2023/04/22 14:08:44;;;;;;;5.75;5.35;;;24.20;55.70;;;;;;4995935;28;20192;-76
2023/04/22 14:11:11;;;;;;;8.07;7.47;;;24.20;56.20;;;;;;5006847;28;20203;-78
2023/04/22 14:13:38;;;;;;;9.23;8.75;;;24.30;54.10;;;;;;5004860;28;20191;-79
2023/04/22 14:16:08;;;;;;;5.10;4.85;;;24.50;53.70;;;;;;4997711;28;20354;-77
2023/04/22 14:18:35;;;;;;;8.98;5.05;;;24.50;56.70;;;;;;4999358;28;20598;-79
2023/04/22 14:21:04;;;;;;;4.95;4.70;;;24.50;56.70;;;;;;4997582;28;20773;-75
2023/04/22 14:23:30;;;;;;;5.43;5.13;;;24.30;56.20;;;;;;4987000;28;20165;-78
2023/04/22 14:25:56;;;;;;;5.25;4.85;;;24.30;56.80;;;;;;4984094;28;20174;-77
2023/04/22 14:28:22;;;;;;;5.93;4.13;;;24.20;57.40;;;;;;5002462;28;20188;-79
2023/04/22 14:30:47;;;;;;;5.38;4.97;;;24.10;57.80;;;;;;4980534;28;20201;-78
2023/04/22 14:33:13;;;;;;;5.15;4.75;;;23.90;57.40;;;;;;4981712;28;20219;-82
2023/04/22 14:35:39;;;;;;;4.57;4.38;;;23.70;59.00;;;;;;4994882;28;20204;-78
2023/04/22 14:38:07;;;;;;;4.47;4.10;;;23.50;63.00;;;;;;4993382;28;20184;-76
2023/04/22 14:40:33;;;;;;;4.20;3.90;;;23.30;62.60;;;;;;4990431;28;20217;-77
2023/04/22 14:43:01;;;;;;;5.90;5.47;;;23.20;64.70;;;;;;4978585;28;20184;-77
2023/04/22 14:45:28;;;;;;;9.70;9.00;;;23.00;65.30;;;;;;4991393;28;20181;-74
2023/04/22 14:47:55;;;;;;;7.93;7.32;;;22.80;67.00;;;;;;4991576;28;20570;-75
2023/04/22 14:50:21;;;;;;;10.13;9.52;;;22.80;68.20;;;;;;4991117;28;20627;-75
2023/04/22 14:52:47;;;;;;;25.17;23.67;;;22.80;69.20;;;;;;4993767;28;20184;-73
2023/04/22 14:55:13;;;;;;;37.78;35.78;;;22.90;70.80;;;;;;4974591;28;20228;-73
2023/04/22 14:57:38;;;;;;;38.10;36.20;;;23.00;72.10;;;;;;4972406;28;20193;-69
2023/04/22 15:00:06;;;;;;;40.17;37.90;;;22.90;72.90;;;;;;4972194;28;20224;-69
2023/04/22 15:02:32;;;;;;;41.47;39.15;;;22.70;72.90;;;;;;4972140;28;20707;-68
2023/04/22 15:04:58;;;;;;;38.17;36.13;;;22.60;73.40;;;;;;4987142;28;20200;-69
2023/04/22 15:07:25;;;;;;;38.83;36.70;;;22.50;73.80;;;;;;4991490;28;20188;-70
2023/04/22 15:09:51;;;;;;;27.75;26.33;;;22.40;74.10;;;;;;4990603;28;20200;-70
2023/04/22 15:12:17;;;;;;;32.03;30.48;;;22.40;74.80;;;;;;4991923;28;20191;-77
2023/04/22 15:14:43;;;;;;;27.52;26.00;;;22.30;73.10;;;;;;4980668;28;20188;-73
2023/04/22 15:17:09;;;;;;;26.85;25.27;;;22.20;74.50;;;;;;4972289;28;20914;-73
2023/04/22 15:19:34;;;;;;;27.17;25.85;;;22.10;73.00;;;;;;4972331;28;20288;-71
2023/04/22 15:22:01;;;;;;;27.38;26.05;;;22.10;73.50;;;;;;4974795;28;20185;-73
2023/04/22 15:24:27;;;;;;;23.75;22.48;;;22.10;72.80;;;;;;4986268;28;20195;-73
2023/04/22 15:26:53;;;;;;;24.98;23.70;;;22.20;74.20;;;;;;4995417;28;20180;-74
2023/04/22 15:29:19;;;;;;;27.20;25.77;;;22.20;74.70;;;;;;4995380;28;20291;-76
2023/04/22 15:31:46;;;;;;;24.05;22.80;;;22.30;74.50;;;;;;4996489;28;20188;-80
2023/04/22 15:34:12;;;;;;;28.45;26.92;;;22.40;75.10;;;;;;4989874;28;20184;-79
2023/04/22 15:36:38;;;;;;;34.17;32.17;;;22.90;71.70;;;;;;4985602;28;20205;-74
2023/04/22 15:39:04;;;;;;;41.22;39.13;;;23.50;71.30;;;;;;4975990;28;20700;-75
2023/04/22 15:41:33;;;;;;;26.35;24.77;;;23.80;71.30;;;;;;4976113;28;20203;-74